createdAt,value
2023-09-27T00:01:04.354Z,17.10
2023-09-27T00:03:31.725Z,17.20
2023-09-27T00:05:58.738Z,17.10
2023-09-27T00:08:26.230Z,17.00
2023-09-27T00:10:53.719Z,17.00
2023-09-27T00:13:20.684Z,17.00
2023-09-27T00:15:49.091Z,17.10
2023-09-27T00:18:16.330Z,17.20
2023-09-27T00:20:43.357Z,17.30
2023-09-27T00:23:10.931Z,17.30
2023-09-27T00:25:38.070Z,17.20
2023-09-27T00:28:05.179Z,17.30
2023-09-27T00:30:32.143Z,17.30
2023-09-27T00:33:00.573Z,17.30
2023-09-27T00:35:27.914Z,17.20
2023-09-27T00:37:54.955Z,17.20
2023-09-27T00:40:24.266Z,17.10
2023-09-27T00:42:51.297Z,17.00
2023-09-27T00:45:19.399Z,17.00
2023-09-27T00:47:48.904Z,17.00
2023-09-27T00:50:16.277Z,17.00
2023-09-27T00:52:44.665Z,16.90
2023-09-27T00:55:13.592Z,16.80
2023-09-27T00:57:41.858Z,16.90
2023-09-27T01:00:12.015Z,16.90
2023-09-27T01:02:40.986Z,16.90
2023-09-27T01:05:11.698Z,17.10
2023-09-27T01:07:40.889Z,17.00
2023-09-27T01:10:09.552Z,17.00
2023-09-27T01:12:38.673Z,17.00
2023-09-27T01:15:07.739Z,17.00
2023-09-27T01:17:35.812Z,16.80
2023-09-27T01:20:02.906Z,16.70
2023-09-27T01:22:29.880Z,16.80
2023-09-27T01:24:57.866Z,16.80
2023-09-27T01:27:25.297Z,16.90
2023-09-27T01:29:52.457Z,16.90
2023-09-27T01:32:20.169Z,16.80
2023-09-27T01:34:47.126Z,16.70
2023-09-27T01:37:14.329Z,16.80
2023-09-27T01:39:41.368Z,16.80
2023-09-27T01:42:12.103Z,16.90
2023-09-27T01:44:39.386Z,16.80
2023-09-27T01:47:06.833Z,16.90
2023-09-27T01:49:34.106Z,16.70
2023-09-27T01:52:01.298Z,16.80
2023-09-27T01:54:28.387Z,16.80
2023-09-27T01:56:55.390Z,16.80
2023-09-27T01:59:22.448Z,16.80
2023-09-27T02:01:50.626Z,16.70
2023-09-27T02:04:17.584Z,16.70
2023-09-27T02:06:44.512Z,16.70
2023-09-27T02:09:11.383Z,16.60
2023-09-27T02:11:38.340Z,16.50
2023-09-27T02:14:05.927Z,16.70
2023-09-27T02:16:34.705Z,16.70
2023-09-27T02:19:05.340Z,16.60
2023-09-27T02:21:32.491Z,16.60
2023-09-27T02:23:59.485Z,16.60
2023-09-27T02:26:26.417Z,16.50
2023-09-27T02:28:53.960Z,16.40
2023-09-27T02:31:21.096Z,16.50
2023-09-27T02:33:48.070Z,16.50
2023-09-27T02:36:15.218Z,16.40
2023-09-27T02:38:42.255Z,16.40
2023-09-27T02:41:09.314Z,16.40
2023-09-27T02:43:36.471Z,16.40
2023-09-27T02:46:03.402Z,16.40
2023-09-27T02:48:30.394Z,16.40
2023-09-27T02:50:57.321Z,16.50
2023-09-27T02:53:24.330Z,16.50
2023-09-27T02:55:51.267Z,16.50
2023-09-27T02:58:18.629Z,16.50
2023-09-27T03:00:45.633Z,16.50
2023-09-27T03:03:15.011Z,16.50
2023-09-27T03:05:42.346Z,16.40
2023-09-27T03:08:09.498Z,16.40
2023-09-27T03:10:40.164Z,16.40
2023-09-27T03:13:09.263Z,16.40
2023-09-27T03:15:39.202Z,16.40
2023-09-27T03:18:06.757Z,16.40
2023-09-27T03:20:34.112Z,16.50
2023-09-27T03:23:01.267Z,16.50
2023-09-27T03:25:28.248Z,16.50
2023-09-27T03:27:55.722Z,16.50
2023-09-27T03:30:22.812Z,16.50
2023-09-27T03:32:49.866Z,16.50
2023-09-27T03:35:17.059Z,16.40
2023-09-27T03:37:45.981Z,16.40
2023-09-27T03:40:15.375Z,16.40
2023-09-27T03:42:47.242Z,16.40
2023-09-27T03:45:16.776Z,16.40
2023-09-27T03:47:46.340Z,16.30
2023-09-27T03:50:13.901Z,16.30
2023-09-27T03:52:41.845Z,16.30
2023-09-27T03:55:09.993Z,16.20
2023-09-27T03:57:37.125Z,16.20
2023-09-27T04:00:08.371Z,16.20
2023-09-27T04:02:35.400Z,16.20
2023-09-27T04:05:03.839Z,16.30
2023-09-27T04:07:30.871Z,16.40
2023-09-27T04:09:57.962Z,16.30
2023-09-27T04:12:24.971Z,16.30
2023-09-27T04:14:52.062Z,16.20
2023-09-27T04:17:19.223Z,16.20
2023-09-27T04:19:46.351Z,16.20
2023-09-27T04:22:13.439Z,16.10
2023-09-27T04:24:40.556Z,16.10
2023-09-27T04:27:07.550Z,16.10
2023-09-27T04:29:34.501Z,16.00
2023-09-27T04:32:01.674Z,15.90
2023-09-27T04:34:29.424Z,15.90
2023-09-27T04:36:56.588Z,15.90
2023-09-27T04:39:28.349Z,15.90
2023-09-27T04:41:55.443Z,16.00
2023-09-27T04:44:22.446Z,15.90
2023-09-27T04:46:49.704Z,15.90
2023-09-27T04:49:16.784Z,15.90
2023-09-27T04:51:43.897Z,15.90
2023-09-27T04:54:10.882Z,15.90
2023-09-27T04:56:38.006Z,15.80
2023-09-27T04:59:06.742Z,15.80
2023-09-27T05:01:33.887Z,15.80
2023-09-27T05:04:01.078Z,15.90
2023-09-27T05:06:28.012Z,15.90
2023-09-27T05:08:55.030Z,15.90
2023-09-27T05:11:22.002Z,15.80
2023-09-27T05:13:48.871Z,15.90
2023-09-27T05:16:16.100Z,15.90
2023-09-27T05:18:43.144Z,15.90
2023-09-27T05:21:10.074Z,15.80
2023-09-27T05:23:37.073Z,15.80
2023-09-27T05:26:04.208Z,15.80
2023-09-27T05:28:32.701Z,15.80
2023-09-27T05:31:01.445Z,15.80
2023-09-27T05:33:29.090Z,15.90
2023-09-27T05:35:56.158Z,15.90
2023-09-27T05:38:23.213Z,15.90
2023-09-27T05:40:50.305Z,15.90
2023-09-27T05:43:17.247Z,15.90
2023-09-27T05:45:44.181Z,15.90
2023-09-27T05:48:11.369Z,15.80
2023-09-27T05:50:39.161Z,15.70
2023-09-27T05:53:06.381Z,15.70
2023-09-27T05:55:33.491Z,15.80
2023-09-27T05:58:00.887Z,15.70
2023-09-27T06:00:33.143Z,15.80
2023-09-27T06:03:00.666Z,15.80
2023-09-27T06:05:28.189Z,15.80
2023-09-27T06:07:55.080Z,15.80
2023-09-27T06:10:23.513Z,15.90
2023-09-27T06:12:50.774Z,15.90
2023-09-27T06:15:18.787Z,15.90
2023-09-27T06:17:46.042Z,16.00
2023-09-27T06:20:20.916Z,16.00
2023-09-27T06:22:53.817Z,16.00
2023-09-27T06:25:24.538Z,16.20
2023-09-27T06:27:52.926Z,16.20
2023-09-27T06:30:21.783Z,16.30
2023-09-27T06:32:49.529Z,16.20
2023-09-27T06:35:16.976Z,16.30
2023-09-27T06:37:45.555Z,16.40
2023-09-27T06:40:17.789Z,16.40
2023-09-27T06:42:45.621Z,16.50
2023-09-27T06:45:14.406Z,16.50
2023-09-27T06:47:42.793Z,16.60
2023-09-27T06:50:10.745Z,16.60
2023-09-27T06:52:40.878Z,16.70
2023-09-27T06:55:11.628Z,16.90
2023-09-27T06:57:42.132Z,16.90
2023-09-27T07:00:30.234Z,17.00
2023-09-27T07:02:58.222Z,17.10
2023-09-27T07:05:27.432Z,17.10
2023-09-27T07:07:55.682Z,17.20
2023-09-27T07:10:24.209Z,17.30
2023-09-27T07:12:51.377Z,17.30
2023-09-27T07:15:18.420Z,17.30
2023-09-27T07:17:48.183Z,17.40
2023-09-27T07:20:29.227Z,17.50
2023-09-27T07:22:56.846Z,17.40
2023-09-27T07:25:24.643Z,17.50
2023-09-27T07:27:55.069Z,17.70
2023-09-27T07:30:28.156Z,17.70
2023-09-27T07:32:56.458Z,17.90
2023-09-27T07:35:25.592Z,17.90
2023-09-27T07:37:52.549Z,18.00
2023-09-27T07:40:19.993Z,18.10
2023-09-27T07:42:48.954Z,18.30
2023-09-27T07:45:22.905Z,18.30
2023-09-27T07:47:54.911Z,18.40
2023-09-27T07:50:23.351Z,18.40
2023-09-27T07:52:50.402Z,18.30
2023-09-27T07:55:19.055Z,18.30
2023-09-27T07:57:46.982Z,18.20
2023-09-27T08:00:20.151Z,18.10
2023-09-27T08:02:48.060Z,18.10
2023-09-27T08:05:18.166Z,18.10
2023-09-27T08:07:45.760Z,18.10
2023-09-27T08:10:20.798Z,18.20
2023-09-27T08:12:49.626Z,18.20
2023-09-27T08:15:19.020Z,18.40
2023-09-27T08:17:47.678Z,18.40
2023-09-27T08:20:15.105Z,18.40
2023-09-27T08:22:42.729Z,18.50
2023-09-27T08:25:15.745Z,18.50
2023-09-27T08:27:43.936Z,18.60
2023-09-27T08:30:13.302Z,18.60
2023-09-27T08:32:42.437Z,18.50
2023-09-27T08:35:10.938Z,18.70
2023-09-27T08:37:38.123Z,18.80
2023-09-27T08:40:14.366Z,18.70
2023-09-27T08:42:43.401Z,18.70
2023-09-27T08:45:15.345Z,18.70
2023-09-27T08:47:44.389Z,18.70
2023-09-27T08:50:15.444Z,18.80
2023-09-27T08:52:47.918Z,18.80
2023-09-27T08:55:16.268Z,19.00
2023-09-27T08:57:53.184Z,19.10
2023-09-27T09:00:28.381Z,19.10
2023-09-27T09:03:01.485Z,19.10
2023-09-27T09:05:31.093Z,19.30
2023-09-27T09:08:05.424Z,19.20
2023-09-27T09:10:32.594Z,19.20
2023-09-27T09:13:01.350Z,19.30
2023-09-27T09:15:42.773Z,19.30
2023-09-27T09:18:16.457Z,19.50
2023-09-27T09:20:58.479Z,19.80
2023-09-27T09:23:34.993Z,20.30
2023-09-27T09:26:07.487Z,20.40
2023-09-27T09:28:36.938Z,20.40
2023-09-27T09:31:04.254Z,20.20
2023-09-27T09:33:38.044Z,20.40
2023-09-27T09:36:05.388Z,20.50
2023-09-27T09:38:33.333Z,20.60
2023-09-27T09:41:02.520Z,20.60
2023-09-27T09:43:37.848Z,20.60
2023-09-27T09:46:11.762Z,20.60
2023-09-27T09:48:43.265Z,20.60
2023-09-27T09:51:12.767Z,20.60
2023-09-27T09:53:42.375Z,20.70
2023-09-27T09:58:55.832Z,21.50
2023-09-27T10:01:29.700Z,21.50
2023-09-27T10:03:59.639Z,21.40
2023-09-27T10:06:45.148Z,21.30
2023-09-27T10:09:16.571Z,21.40
2023-09-27T10:11:49.517Z,21.20
2023-09-27T10:14:18.365Z,21.20
2023-09-27T10:16:45.922Z,21.20
2023-09-27T10:19:14.368Z,21.30
2023-09-27T10:22:05.896Z,21.20
2023-09-27T10:24:42.256Z,21.30
2023-09-27T10:27:09.487Z,21.90
2023-09-27T10:29:56.332Z,22.70
2023-09-27T10:32:24.184Z,23.30
2023-09-27T10:34:53.109Z,23.50
2023-09-27T10:38:11.976Z,23.90
2023-09-27T10:40:46.395Z,24.40
2023-09-27T10:43:36.527Z,24.80
2023-09-27T10:46:06.757Z,24.70
2023-09-27T10:48:33.997Z,24.80
2023-09-27T10:51:01.412Z,25.00
2023-09-27T10:53:28.372Z,25.00
2023-09-27T10:55:55.732Z,25.20
2023-09-27T10:58:22.820Z,25.40
2023-09-27T11:01:02.176Z,25.60
2023-09-27T11:03:31.048Z,25.50
2023-09-27T11:06:15.518Z,25.00
2023-09-27T11:08:43.268Z,25.00
2023-09-27T11:11:13.625Z,25.50
2023-09-27T11:13:46.775Z,25.80
2023-09-27T11:16:19.520Z,25.70
2023-09-27T11:18:50.089Z,25.50
2023-09-27T11:21:17.636Z,25.70
2023-09-27T11:23:58.799Z,25.70
2023-09-27T11:26:28.051Z,25.50
2023-09-27T11:29:05.057Z,25.70
2023-09-27T11:31:33.855Z,26.00
2023-09-27T11:34:20.555Z,26.00
2023-09-27T11:36:52.504Z,26.20
2023-09-27T11:39:30.985Z,26.50
2023-09-27T11:42:00.516Z,27.00
2023-09-27T11:44:29.005Z,27.00
2023-09-27T11:47:07.617Z,26.60
2023-09-27T11:49:35.748Z,26.60
2023-09-27T11:52:03.752Z,27.00
2023-09-27T11:54:31.093Z,27.30
2023-09-27T11:56:58.937Z,27.20
2023-09-27T11:59:26.104Z,27.40
2023-09-27T12:01:53.232Z,27.60
2023-09-27T12:04:20.891Z,27.60
2023-09-27T12:06:48.683Z,27.80
2023-09-27T12:09:16.476Z,27.60
2023-09-27T12:11:43.542Z,27.60
2023-09-27T12:14:10.782Z,27.70
2023-09-27T12:16:37.954Z,27.60
2023-09-27T12:19:05.035Z,28.10
2023-09-27T12:21:36.134Z,28.20
2023-09-27T12:24:04.600Z,28.20
2023-09-27T12:26:31.627Z,28.60
2023-09-27T12:28:58.603Z,28.30
2023-09-27T12:31:25.638Z,28.20
2023-09-27T12:33:52.829Z,28.00
2023-09-27T12:36:19.889Z,27.70
2023-09-27T12:38:46.919Z,27.30
2023-09-27T12:41:14.282Z,27.20
2023-09-27T12:43:42.137Z,27.00
2023-09-27T12:46:10.413Z,27.00
2023-09-27T12:48:38.275Z,26.90
2023-09-27T12:51:08.957Z,26.80
2023-09-27T12:53:35.919Z,26.60
2023-09-27T12:56:08.002Z,26.40
2023-09-27T12:58:36.066Z,26.30
2023-09-27T13:01:03.315Z,26.10
2023-09-27T13:03:32.828Z,26.00
2023-09-27T13:06:00.075Z,26.00
2023-09-27T13:08:27.167Z,26.00
2023-09-27T13:10:54.340Z,26.40
2023-09-27T13:13:21.355Z,26.50
2023-09-27T13:15:48.610Z,26.40
2023-09-27T13:18:15.733Z,26.20
2023-09-27T13:20:43.057Z,26.30
2023-09-27T13:23:11.192Z,26.20
2023-09-27T13:25:38.248Z,26.20
2023-09-27T13:28:05.568Z,26.70
2023-09-27T13:30:36.516Z,26.70
2023-09-27T13:33:04.911Z,26.70
2023-09-27T13:35:35.030Z,26.90
2023-09-27T13:38:07.398Z,26.70
2023-09-27T13:40:38.686Z,26.50
2023-09-27T13:43:06.496Z,26.40
2023-09-27T13:45:33.786Z,26.30
2023-09-27T13:48:01.882Z,26.00
2023-09-27T13:50:33.358Z,25.90
2023-09-27T13:53:01.822Z,25.60
2023-09-27T13:55:28.776Z,25.60
2023-09-27T13:57:57.104Z,25.40
2023-09-27T14:00:24.310Z,25.20
2023-09-27T14:02:52.292Z,25.40
2023-09-27T14:05:20.071Z,25.60
2023-09-27T14:07:47.033Z,25.70
2023-09-27T14:10:13.924Z,25.90
2023-09-27T14:12:42.009Z,25.80
2023-09-27T14:15:10.545Z,25.70
2023-09-27T14:17:40.044Z,25.80
2023-09-27T14:20:07.801Z,25.80
2023-09-27T14:22:34.694Z,25.90
2023-09-27T14:25:01.608Z,25.90
2023-09-27T14:27:28.748Z,26.00
2023-09-27T14:29:55.588Z,26.00
2023-09-27T14:32:23.559Z,26.00
2023-09-27T14:37:20.554Z,26.60
2023-09-27T14:39:48.606Z,26.60
2023-09-27T14:42:15.776Z,26.70
2023-09-27T14:44:42.736Z,26.80
2023-09-27T14:47:09.880Z,27.10
2023-09-27T14:49:36.877Z,27.40
2023-09-27T14:52:03.960Z,27.30
2023-09-27T14:54:30.872Z,27.30
2023-09-27T14:56:59.748Z,27.30
2023-09-27T14:59:26.923Z,27.00
2023-09-27T15:01:59.122Z,27.10
2023-09-27T15:04:27.743Z,27.00
2023-09-27T15:06:56.147Z,26.60
2023-09-27T15:09:23.050Z,26.40
2023-09-27T15:11:49.880Z,26.20
2023-09-27T15:14:16.771Z,26.00
2023-09-27T15:16:44.182Z,25.90
2023-09-27T15:19:11.225Z,26.00
2023-09-27T15:21:38.040Z,26.00
2023-09-27T15:24:05.731Z,26.00
2023-09-27T15:26:33.461Z,25.90
2023-09-27T15:29:01.475Z,26.00
2023-09-27T15:31:30.030Z,25.80
2023-09-27T15:33:57.996Z,25.90
2023-09-27T15:36:28.522Z,25.80
2023-09-27T15:38:55.543Z,25.80
2023-09-27T15:41:22.800Z,25.80
2023-09-27T15:43:50.960Z,25.70
2023-09-27T15:46:19.425Z,25.50
2023-09-27T15:48:47.823Z,25.50
2023-09-27T15:51:16.753Z,25.50
2023-09-27T15:53:43.830Z,25.40
2023-09-27T15:56:11.884Z,25.40
2023-09-27T15:58:39.529Z,25.40
2023-09-27T16:01:08.005Z,25.20
2023-09-27T16:03:36.374Z,25.10
2023-09-27T16:06:05.490Z,25.00
2023-09-27T16:08:32.899Z,25.00
2023-09-27T16:11:00.785Z,24.80
2023-09-27T16:13:29.209Z,24.80
2023-09-27T16:15:56.334Z,24.70
2023-09-27T16:18:23.450Z,24.70
2023-09-27T16:20:50.575Z,24.50
2023-09-27T16:23:17.868Z,24.60
2023-09-27T16:25:47.619Z,24.50
2023-09-27T16:28:16.210Z,24.40
2023-09-27T16:30:43.857Z,24.30
2023-09-27T16:33:11.265Z,24.30
2023-09-27T16:35:39.550Z,24.30
2023-09-27T16:38:07.106Z,24.30
2023-09-27T16:40:34.272Z,24.20
2023-09-27T16:43:01.484Z,24.10
2023-09-27T16:45:28.854Z,24.20
2023-09-27T16:47:55.999Z,24.10
2023-09-27T16:50:23.330Z,24.10
2023-09-27T16:52:50.377Z,24.00
2023-09-27T16:55:17.734Z,24.00
2023-09-27T16:57:44.810Z,24.00
2023-09-27T17:00:12.411Z,24.00
2023-09-27T17:02:40.801Z,23.90
2023-09-27T17:05:08.690Z,23.80
2023-09-27T17:07:36.961Z,23.80
2023-09-27T17:10:06.187Z,23.70
2023-09-27T17:12:33.211Z,23.60
2023-09-27T17:15:00.320Z,23.50
2023-09-27T17:17:27.510Z,23.50
2023-09-27T17:19:54.459Z,23.50
2023-09-27T17:22:21.438Z,23.50
2023-09-27T17:24:50.315Z,23.50
2023-09-27T17:27:18.227Z,23.50
2023-09-27T17:29:45.487Z,23.40
2023-09-27T17:32:13.081Z,23.40
2023-09-27T17:34:40.397Z,23.50
2023-09-27T17:37:08.744Z,23.40
2023-09-27T17:39:36.640Z,23.30
2023-09-27T17:42:03.942Z,23.20
2023-09-27T17:44:30.959Z,23.10
2023-09-27T17:47:01.780Z,23.10
2023-09-27T17:49:29.901Z,23.10
2023-09-27T17:51:56.741Z,23.10
2023-09-27T17:54:24.165Z,23.10
2023-09-27T17:56:54.254Z,23.10
2023-09-27T17:59:21.336Z,23.00
2023-09-27T18:01:49.496Z,23.00
2023-09-27T18:04:17.508Z,22.90
2023-09-27T18:06:44.422Z,22.90
2023-09-27T18:09:11.444Z,22.80
2023-09-27T18:11:38.319Z,22.80
2023-09-27T18:14:05.580Z,22.80
2023-09-27T18:16:32.596Z,22.70
2023-09-27T18:19:00.152Z,22.80
2023-09-27T18:21:29.167Z,22.70
2023-09-27T18:23:56.470Z,22.70
2023-09-27T18:26:24.014Z,22.70
2023-09-27T18:28:51.053Z,22.60
2023-09-27T18:31:19.696Z,22.50
2023-09-27T18:33:47.177Z,22.60
2023-09-27T18:36:14.250Z,22.50
2023-09-27T18:38:41.343Z,22.40
2023-09-27T18:41:08.514Z,22.30
2023-09-27T18:43:35.631Z,22.40
2023-09-27T18:46:03.524Z,22.30
2023-09-27T18:48:30.715Z,22.30
2023-09-27T18:51:00.660Z,22.20
2023-09-27T18:53:27.590Z,22.20
2023-09-27T18:55:56.788Z,22.20
2023-09-27T18:58:25.363Z,22.20
2023-09-27T19:00:52.767Z,22.20
2023-09-27T19:03:20.725Z,22.20
2023-09-27T19:05:47.618Z,22.20
2023-09-27T19:08:14.551Z,22.10
2023-09-27T19:10:42.051Z,22.20
2023-09-27T19:13:09.227Z,22.20
2023-09-27T19:15:36.420Z,22.20
2023-09-27T19:18:03.764Z,22.20
2023-09-27T19:20:32.775Z,22.20
2023-09-27T19:23:00.869Z,22.20
2023-09-27T19:25:27.983Z,22.30
2023-09-27T19:27:54.863Z,22.30
2023-09-27T19:30:22.185Z,22.40
2023-09-27T19:32:49.436Z,22.50
2023-09-27T19:35:16.824Z,22.40
2023-09-27T19:37:43.959Z,22.40
2023-09-27T19:40:11.420Z,22.30
2023-09-27T19:42:39.128Z,22.30
2023-09-27T19:45:06.981Z,22.40
2023-09-27T19:47:36.195Z,22.30
2023-09-27T19:50:04.624Z,22.20
2023-09-27T19:52:31.805Z,22.20
2023-09-27T19:54:59.235Z,22.20
2023-09-27T19:57:26.134Z,22.30
2023-09-27T19:59:53.574Z,22.40
2023-09-27T20:02:21.070Z,22.30
2023-09-27T20:04:48.315Z,22.30
2023-09-27T20:07:15.309Z,22.30
2023-09-27T20:09:43.521Z,22.30
2023-09-27T20:12:10.679Z,22.40
2023-09-27T20:14:37.964Z,22.40
2023-09-27T20:17:05.084Z,22.50
2023-09-27T20:19:32.048Z,22.40
2023-09-27T20:21:59.165Z,22.50
2023-09-27T20:24:27.042Z,22.40
2023-09-27T20:26:54.299Z,22.50
2023-09-27T20:29:21.713Z,22.60
2023-09-27T20:31:48.787Z,22.50
2023-09-27T20:34:15.829Z,22.60
2023-09-27T20:36:43.072Z,22.70
2023-09-27T20:39:10.195Z,22.80
2023-09-27T20:41:37.275Z,22.70
2023-09-27T20:44:04.653Z,22.70
2023-09-27T20:46:31.785Z,22.60
2023-09-27T20:49:00.504Z,22.70
2023-09-27T20:51:27.447Z,22.70
2023-09-27T20:53:55.541Z,22.80
2023-09-27T20:56:22.881Z,22.80
2023-09-27T20:58:49.968Z,22.80
2023-09-27T21:01:28.969Z,22.80
2023-09-27T21:03:57.512Z,22.70
2023-09-27T21:06:29.136Z,22.70
2023-09-27T21:09:04.266Z,22.60
2023-09-27T21:11:31.651Z,22.60
2023-09-27T21:14:00.848Z,22.70
2023-09-27T21:16:29.511Z,22.60
2023-09-27T21:18:57.846Z,22.70
2023-09-27T21:21:25.216Z,22.50
2023-09-27T21:23:53.703Z,22.50
2023-09-27T21:26:21.730Z,22.60
2023-09-27T21:28:48.943Z,22.60
2023-09-27T21:31:16.348Z,22.60
2023-09-27T21:33:44.762Z,22.50
2023-09-27T21:36:12.041Z,22.40
2023-09-27T21:38:40.267Z,22.30
2023-09-27T21:41:07.675Z,22.30
2023-09-27T21:43:34.984Z,22.40
2023-09-27T21:46:02.621Z,22.40
2023-09-27T21:48:30.374Z,22.30
2023-09-27T21:50:57.307Z,22.20
2023-09-27T21:53:24.262Z,22.20
2023-09-27T21:55:51.386Z,22.10
2023-09-27T21:58:18.440Z,21.90
2023-09-27T22:00:45.488Z,21.80
2023-09-27T22:03:14.633Z,22.00
2023-09-27T22:05:42.227Z,22.00
2023-09-27T22:08:18.256Z,21.90
2023-09-27T22:10:45.856Z,21.90
2023-09-27T22:13:22.969Z,22.00
2023-09-27T22:16:09.803Z,21.90
2023-09-27T22:18:51.087Z,21.90
2023-09-27T22:21:38.629Z,21.90
2023-09-27T22:24:13.418Z,22.00
2023-09-27T22:26:47.161Z,22.00
2023-09-27T22:29:15.435Z,22.10
2023-09-27T22:31:43.684Z,22.10
2023-09-27T22:34:24.536Z,22.00
2023-09-27T22:36:52.555Z,22.00
2023-09-27T22:39:20.559Z,21.70
2023-09-27T22:41:49.765Z,21.70
2023-09-27T22:44:20.673Z,21.70
2023-09-27T22:46:52.968Z,21.70
2023-09-27T22:49:21.999Z,21.50
2023-09-27T22:51:49.471Z,21.60
2023-09-27T22:54:18.136Z,21.60
2023-09-27T22:56:46.521Z,21.50
2023-09-27T22:59:15.425Z,21.40
2023-09-27T23:01:44.554Z,21.30
2023-09-27T23:04:16.842Z,21.30
2023-09-27T23:07:01.260Z,21.30
2023-09-27T23:09:35.337Z,21.30
2023-09-27T23:12:18.798Z,21.40
2023-09-27T23:15:04.983Z,21.20
2023-09-27T23:17:44.160Z,21.10
2023-09-27T23:20:12.687Z,21.10
2023-09-27T23:22:57.960Z,21.10
2023-09-27T23:25:41.030Z,21.10
2023-09-27T23:28:08.569Z,21.10
2023-09-27T23:30:35.739Z,21.00
2023-09-27T23:33:02.985Z,20.90
2023-09-27T23:35:32.265Z,20.90
2023-09-27T23:38:11.152Z,20.80
2023-09-27T23:40:42.995Z,20.80
2023-09-27T23:43:10.604Z,20.80
2023-09-27T23:45:38.956Z,20.70
2023-09-27T23:48:12.383Z,20.80
2023-09-27T23:50:41.608Z,20.80
2023-09-27T23:53:08.698Z,20.90
2023-09-27T23:55:42.448Z,20.80
2023-09-27T23:58:13.812Z,20.80
